createdAt,value
2023-03-24T00:03:05.496Z,21.87
2023-03-24T00:08:08.960Z,21.93
2023-03-24T00:13:14.106Z,23.57
2023-03-24T00:18:18.473Z,21.43
2023-03-24T00:23:22.424Z,22.10
2023-03-24T00:28:27.190Z,20.30
2023-03-24T00:33:31.803Z,20.03
2023-03-24T00:38:36.526Z,21.90
2023-03-24T00:43:42.066Z,20.87
2023-03-24T00:48:46.161Z,19.73
2023-03-24T00:53:49.809Z,21.43
2023-03-24T00:58:57.827Z,21.17
2023-03-24T01:04:02.436Z,22.33
2023-03-24T01:09:07.158Z,21.20
2023-03-24T01:14:13.143Z,21.87
2023-03-24T01:19:16.934Z,23.43
2023-03-24T01:24:20.800Z,23.37
2023-03-24T01:29:25.689Z,24.63
2023-03-24T01:34:29.422Z,22.20
2023-03-24T01:39:32.892Z,21.43
2023-03-24T01:44:39.876Z,24.13
2023-03-24T01:49:48.122Z,24.63
2023-03-24T01:54:54.478Z,21.57
2023-03-24T02:00:05.632Z,18.60
2023-03-24T02:05:22.642Z,18.90
2023-03-24T02:10:27.542Z,17.13
2023-03-24T02:15:35.170Z,17.20
2023-03-24T02:21:11.051Z,17.23
2023-03-24T02:26:38.348Z,16.27
2023-03-24T02:32:03.571Z,17.27
2023-03-24T02:37:45.210Z,16.00
2023-03-24T02:43:04.613Z,15.80
2023-03-24T02:48:22.901Z,15.50
2023-03-24T02:53:33.666Z,14.03
2023-03-24T02:59:01.913Z,16.03
2023-03-24T03:04:14.151Z,16.57
2023-03-24T03:09:20.822Z,28.43
2023-03-24T03:14:29.949Z,30.40
2023-03-24T03:19:37.435Z,28.83
2023-03-24T03:24:43.826Z,28.97
2023-03-24T03:29:54.408Z,25.83
2023-03-24T03:35:03.653Z,24.57
2023-03-24T03:40:12.066Z,25.70
2023-03-24T03:45:21.041Z,23.30
2023-03-24T03:50:24.598Z,21.17
2023-03-24T03:55:28.219Z,20.17
2023-03-24T04:00:33.614Z,20.17
2023-03-24T04:06:27.167Z,18.37
2023-03-24T04:11:47.854Z,19.63
2023-03-24T04:17:14.306Z,19.83
2023-03-24T04:22:28.513Z,19.57
2023-03-24T04:27:57.187Z,20.50
2023-03-24T04:33:06.805Z,19.90
2023-03-24T04:38:17.243Z,20.10
2023-03-24T04:43:29.853Z,22.30
2023-03-24T04:48:34.713Z,20.73
2023-03-24T04:53:40.732Z,20.80
2023-03-24T04:58:44.347Z,20.93
2023-03-24T05:03:49.800Z,21.93
2023-03-24T05:08:54.197Z,21.27
2023-03-24T05:13:57.776Z,19.50
2023-03-24T05:19:03.103Z,21.10
2023-03-24T05:24:09.022Z,21.50
2023-03-24T05:29:13.564Z,23.07
2023-03-24T05:34:18.816Z,24.40
2023-03-24T05:39:31.307Z,23.50
2023-03-24T05:44:41.667Z,25.77
2023-03-24T05:49:52.082Z,27.00
2023-03-24T05:54:55.872Z,26.87
2023-03-24T06:00:07.517Z,25.93
2023-03-24T06:05:29.850Z,25.97
2023-03-24T06:10:33.568Z,22.97
2023-03-24T06:15:39.602Z,24.83
2023-03-24T06:21:03.901Z,23.67
2023-03-24T06:26:13.963Z,22.93
2023-03-24T06:31:32.844Z,23.33
2023-03-24T06:36:38.510Z,22.17
2023-03-24T06:41:43.779Z,22.20
2023-03-24T06:46:47.811Z,21.37
2023-03-24T06:51:54.418Z,21.77
2023-03-24T06:57:00.186Z,21.33
2023-03-24T07:02:17.612Z,20.57
2023-03-24T07:07:53.441Z,21.17
2023-03-24T07:13:07.535Z,18.07
2023-03-24T07:18:14.108Z,18.47
2023-03-24T07:23:21.877Z,19.23
2023-03-24T07:28:39.769Z,18.03
2023-03-24T07:33:43.460Z,19.83
2023-03-24T07:38:49.051Z,19.60
2023-03-24T07:44:00.203Z,17.03
2023-03-24T07:49:18.807Z,16.33
2023-03-24T07:54:33.622Z,16.33
2023-03-24T07:59:37.227Z,17.30
2023-03-24T08:04:53.731Z,17.80
2023-03-24T08:10:17.198Z,17.00
2023-03-24T08:15:20.709Z,17.93
2023-03-24T08:20:25.146Z,17.93
2023-03-24T08:25:30.022Z,16.93
2023-03-24T08:30:33.742Z,17.37
2023-03-24T08:35:40.022Z,16.77
2023-03-24T08:40:44.955Z,15.83
2023-03-24T08:45:48.869Z,16.00
2023-03-24T08:50:52.484Z,14.80
2023-03-24T08:55:57.405Z,13.47
2023-03-24T09:01:01.154Z,14.10
2023-03-24T09:06:05.237Z,14.00
2023-03-24T09:11:17.149Z,14.03
2023-03-24T09:16:21.907Z,14.20
2023-03-24T09:21:25.709Z,13.57
2023-03-24T09:26:30.566Z,13.53
2023-03-24T09:31:34.350Z,12.53
2023-03-24T09:36:38.493Z,12.17
2023-03-24T09:41:46.107Z,12.57
2023-03-24T09:46:53.382Z,12.23
2023-03-24T09:52:04.653Z,12.00
2023-03-24T09:57:19.298Z,12.00
2023-03-24T10:02:23.812Z,12.10
2023-03-24T10:07:34.666Z,12.80
2023-03-24T10:12:41.338Z,11.90
2023-03-24T10:17:57.166Z,11.97
2023-03-24T10:23:05.624Z,12.05
2023-03-24T10:28:19.986Z,11.65
2023-03-24T10:33:23.928Z,12.32
2023-03-24T10:38:27.720Z,11.63
2023-03-24T10:43:33.449Z,11.20
2023-03-24T10:48:44.845Z,12.68
2023-03-24T10:53:50.066Z,12.55
2023-03-24T10:58:54.980Z,11.75
2023-03-24T11:04:03.653Z,14.27
2023-03-24T11:09:11.850Z,12.13
2023-03-24T11:14:25.597Z,12.45
2023-03-24T11:19:29.085Z,12.52
2023-03-24T11:24:37.663Z,13.20
2023-03-24T11:29:42.661Z,13.40
2023-03-24T11:34:51.360Z,11.10
2023-03-24T11:40:17.888Z,11.13
2023-03-24T11:45:26.600Z,11.73
2023-03-24T11:50:32.143Z,12.13
2023-03-24T11:55:44.419Z,12.85
2023-03-24T12:00:56.256Z,10.90
2023-03-24T12:06:13.788Z,10.50
2023-03-24T12:11:26.390Z,10.82
2023-03-24T12:16:45.457Z,10.95
2023-03-24T12:21:58.496Z,10.85
2023-03-24T12:27:02.418Z,9.55
2023-03-24T12:32:32.607Z,11.68
2023-03-24T12:37:46.661Z,11.65
2023-03-24T12:42:59.693Z,11.50
2023-03-24T12:48:19.576Z,10.88
2023-03-24T12:53:41.911Z,11.15
2023-03-24T12:58:47.959Z,10.38
2023-03-24T13:03:56.995Z,9.90
2023-03-24T13:09:16.088Z,12.02
2023-03-24T13:14:29.916Z,10.25
2023-03-24T13:19:49.092Z,10.60
2023-03-24T13:25:07.427Z,11.13
2023-03-24T13:30:27.880Z,10.75
2023-03-24T13:36:14.718Z,10.40
2023-03-24T13:41:53.405Z,10.40
2023-03-24T13:47:26.439Z,11.17
2023-03-24T13:52:53.205Z,10.10
2023-03-24T13:58:25.180Z,10.10
2023-03-24T14:03:45.130Z,9.30
2023-03-24T14:09:25.053Z,9.50
2023-03-24T14:14:40.790Z,9.27
2023-03-24T14:19:47.250Z,9.07
2023-03-24T14:25:02.548Z,8.37
2023-03-24T14:30:41.409Z,8.50
2023-03-24T14:36:10.533Z,8.90
2023-03-24T14:41:34.578Z,9.73
2023-03-24T14:47:03.139Z,9.50
2023-03-24T14:52:21.420Z,9.40
2023-03-24T14:57:39.207Z,10.27
2023-03-24T15:02:52.583Z,9.80
2023-03-24T15:08:15.696Z,10.37
2023-03-24T15:13:50.738Z,10.83
2023-03-24T15:19:01.917Z,10.00
2023-03-24T15:24:32.194Z,10.37
2023-03-24T15:29:42.712Z,10.03
2023-03-24T15:34:56.265Z,10.43
2023-03-24T15:40:15.927Z,11.00
2023-03-24T15:45:30.481Z,10.90
2023-03-24T15:50:37.759Z,11.57
2023-03-24T15:55:45.674Z,12.73
2023-03-24T16:00:58.864Z,11.87
2023-03-24T16:06:03.829Z,11.80
2023-03-24T16:11:12.973Z,12.03
2023-03-24T16:16:29.120Z,11.17
2023-03-24T16:21:36.221Z,12.37
2023-03-24T16:26:41.656Z,11.30
2023-03-24T16:31:55.616Z,11.90
2023-03-24T16:37:05.270Z,11.80
2023-03-24T16:42:10.859Z,11.70
2023-03-24T16:47:16.779Z,11.00
2023-03-24T16:52:29.287Z,10.27
2023-03-24T16:57:38.571Z,10.07
2023-03-24T17:02:49.411Z,10.37
2023-03-24T17:07:54.665Z,11.07
2023-03-24T17:13:02.341Z,10.83
2023-03-24T17:18:21.375Z,11.13
2023-03-24T17:23:32.243Z,10.27
2023-03-24T17:28:38.540Z,10.17
2023-03-24T17:34:08.583Z,9.73
2023-03-24T17:39:29.482Z,9.53
2023-03-24T17:45:13.817Z,9.63
2023-03-24T17:50:26.649Z,9.03
2023-03-24T17:55:39.400Z,8.90
2023-03-24T18:00:49.891Z,9.10
2023-03-24T18:05:58.490Z,8.13
2023-03-24T18:16:54.833Z,6.80
2023-03-24T18:22:00.851Z,5.83
2023-03-24T18:27:12.305Z,5.70
2023-03-24T18:32:20.620Z,5.50
2023-03-24T18:37:29.591Z,5.50
2023-03-24T18:42:45.611Z,5.70
2023-03-24T18:47:54.167Z,6.20
2023-03-24T18:53:05.360Z,6.80
2023-03-24T18:58:16.441Z,7.33
2023-03-24T19:03:26.589Z,8.00
2023-03-24T19:08:40.333Z,7.90
2023-03-24T19:14:02.527Z,8.23
2023-03-24T19:19:48.905Z,8.43
2023-03-24T19:25:14.214Z,9.07
2023-03-24T19:35:55.775Z,8.70
2023-03-24T19:41:08.089Z,9.10
2023-03-24T19:46:17.302Z,8.77
2023-03-24T19:51:26.128Z,10.53
2023-03-24T19:56:40.325Z,9.73
2023-03-24T20:01:45.829Z,9.37
2023-03-24T20:06:52.795Z,9.00
2023-03-24T20:12:01.730Z,8.30
2023-03-24T20:17:16.423Z,8.20
2023-03-24T20:22:28.962Z,6.93
2023-03-24T20:27:38.327Z,6.67
2023-03-24T20:32:45.572Z,6.40
2023-03-24T20:37:52.006Z,5.77
2023-03-24T20:43:07.776Z,6.20
2023-03-24T20:48:13.494Z,6.20
2023-03-24T20:53:22.485Z,6.53
2023-03-24T20:58:39.376Z,6.30
2023-03-24T21:03:45.269Z,6.60
2023-03-24T21:08:57.400Z,6.70
2023-03-24T21:14:04.053Z,6.23
2023-03-24T21:19:18.636Z,6.37
2023-03-24T21:24:22.588Z,5.10
2023-03-24T21:29:37.172Z,5.73
2023-03-24T21:34:44.127Z,5.20
2023-03-24T21:39:48.560Z,4.60
2023-03-24T21:44:55.938Z,4.43
2023-03-24T21:50:03.707Z,4.37
2023-03-24T21:55:21.446Z,4.90
2023-03-24T22:00:30.712Z,4.20
2023-03-24T22:05:35.482Z,4.03
2023-03-24T22:10:42.820Z,4.50
2023-03-24T22:15:57.117Z,4.50
2023-03-24T22:21:07.377Z,4.47
2023-03-24T22:26:17.236Z,4.57
2023-03-24T22:31:25.943Z,4.50
2023-03-24T22:36:43.976Z,4.53
2023-03-24T22:41:54.954Z,4.20
2023-03-24T22:47:06.370Z,4.60
2023-03-24T22:52:14.877Z,4.43
2023-03-24T22:57:21.970Z,4.70
2023-03-24T23:02:32.430Z,4.73
2023-03-24T23:07:43.388Z,4.67
2023-03-24T23:13:04.472Z,5.17
2023-03-24T23:18:10.356Z,5.33
2023-03-24T23:23:15.509Z,5.07
2023-03-24T23:28:34.312Z,5.43
2023-03-24T23:33:41.156Z,5.20
2023-03-24T23:38:48.105Z,5.03
2023-03-24T23:44:01.864Z,5.17
2023-03-24T23:49:12.823Z,5.10
2023-03-24T23:54:20.201Z,5.10
2023-03-24T23:59:26.652Z,5.10
